createdAt,value
2022-12-07T00:01:47.767Z,3.56
2022-12-07T00:04:18.095Z,3.53
2022-12-07T00:06:49.037Z,3.54
2022-12-07T00:09:18.881Z,3.55
2022-12-07T00:11:49.723Z,3.59
2022-12-07T00:14:18.538Z,3.53
2022-12-07T00:16:46.921Z,3.50
2022-12-07T00:19:16.222Z,3.45
2022-12-07T00:21:44.496Z,3.52
2022-12-07T00:24:14.511Z,3.43
2022-12-07T00:26:44.952Z,3.33
2022-12-07T00:29:17.337Z,3.34
2022-12-07T00:31:45.042Z,3.38
2022-12-07T00:34:15.141Z,3.31
2022-12-07T00:36:42.900Z,3.27
2022-12-07T00:39:10.809Z,3.22
2022-12-07T00:41:40.011Z,3.22
2022-12-07T00:44:07.805Z,3.24
2022-12-07T00:46:35.562Z,3.31
2022-12-07T00:49:03.280Z,3.35
2022-12-07T00:51:31.360Z,3.32
2022-12-07T00:53:59.064Z,3.39
2022-12-07T00:56:28.888Z,3.35
2022-12-07T00:59:00.421Z,3.37
2022-12-07T01:01:30.988Z,3.43
2022-12-07T01:03:58.952Z,3.48
2022-12-07T01:06:27.929Z,3.45
2022-12-07T01:08:56.438Z,3.48
2022-12-07T01:11:26.641Z,3.49
2022-12-07T01:13:55.990Z,3.47
2022-12-07T01:16:26.278Z,3.44
2022-12-07T01:18:56.427Z,3.45
2022-12-07T01:21:26.671Z,3.43
2022-12-07T01:23:54.509Z,3.37
2022-12-07T01:26:25.049Z,3.37
2022-12-07T01:28:55.803Z,3.42
2022-12-07T01:31:26.505Z,3.37
2022-12-07T01:33:58.309Z,3.35
2022-12-07T01:36:28.126Z,3.36
2022-12-07T01:38:57.887Z,3.39
2022-12-07T01:41:27.680Z,3.29
2022-12-07T01:44:16.562Z,3.20
2022-12-07T01:46:47.395Z,3.21
2022-12-07T01:49:20.724Z,3.20
2022-12-07T01:51:51.122Z,3.25
2022-12-07T01:54:19.807Z,3.26
2022-12-07T01:56:53.343Z,3.26
2022-12-07T01:59:23.832Z,3.28
2022-12-07T02:01:53.390Z,3.30
2022-12-07T02:04:21.397Z,3.21
2022-12-07T02:06:49.447Z,3.08
2022-12-07T02:09:17.261Z,2.92
2022-12-07T02:11:44.948Z,2.76
2022-12-07T02:14:12.614Z,2.69
2022-12-07T02:16:49.207Z,2.65
2022-12-07T02:19:41.277Z,2.65
2022-12-07T02:22:22.696Z,2.66
2022-12-07T02:24:56.709Z,2.74
2022-12-07T02:27:39.647Z,2.76
2022-12-07T02:30:11.043Z,2.78
2022-12-07T02:32:46.808Z,2.87
2022-12-07T02:35:20.676Z,2.93
2022-12-07T02:37:58.779Z,3.03
2022-12-07T02:40:31.283Z,3.11
2022-12-07T02:43:06.328Z,3.17
2022-12-07T02:45:38.151Z,3.20
2022-12-07T02:48:08.181Z,3.28
2022-12-07T02:50:35.849Z,3.28
2022-12-07T02:53:03.529Z,3.27
2022-12-07T02:55:35.807Z,3.31
2022-12-07T02:58:20.209Z,3.32
2022-12-07T03:00:56.729Z,3.35
2022-12-07T03:03:25.426Z,3.42
2022-12-07T03:06:18.454Z,3.48
2022-12-07T03:08:54.569Z,3.52
2022-12-07T03:11:27.881Z,3.50
2022-12-07T03:14:00.896Z,3.48
2022-12-07T03:16:34.496Z,3.45
2022-12-07T03:19:05.747Z,3.44
2022-12-07T03:21:37.626Z,3.44
2022-12-07T03:24:11.822Z,3.50
2022-12-07T03:26:45.122Z,3.53
2022-12-07T03:29:17.299Z,3.56
2022-12-07T03:31:53.279Z,3.53
2022-12-07T03:34:29.082Z,3.52
2022-12-07T03:37:03.774Z,3.52
2022-12-07T03:39:38.260Z,3.50
2022-12-07T03:42:09.489Z,3.54
2022-12-07T03:44:38.781Z,3.56
2022-12-07T03:47:14.725Z,3.52
2022-12-07T03:49:46.592Z,3.49
2022-12-07T03:52:26.799Z,3.48
2022-12-07T03:55:02.236Z,3.55
2022-12-07T03:57:32.486Z,3.56
2022-12-07T04:00:01.443Z,3.56
2022-12-07T04:02:42.929Z,3.61
2022-12-07T04:05:11.416Z,3.62
2022-12-07T04:07:39.651Z,3.61
2022-12-07T04:10:08.296Z,3.60
2022-12-07T04:12:36.089Z,3.58
2022-12-07T04:15:04.033Z,3.53
2022-12-07T04:17:32.160Z,3.48
2022-12-07T04:20:01.511Z,3.52
2022-12-07T04:22:29.371Z,3.53
2022-12-07T04:24:57.093Z,3.58
2022-12-07T04:27:24.913Z,3.61
2022-12-07T04:29:52.665Z,3.63
2022-12-07T04:32:20.288Z,3.66
2022-12-07T04:34:50.379Z,3.70
2022-12-07T04:37:23.190Z,3.67
2022-12-07T04:39:50.933Z,3.56
2022-12-07T04:42:18.603Z,3.52
2022-12-07T04:44:46.552Z,3.52
2022-12-07T04:47:14.233Z,3.53
2022-12-07T04:49:42.299Z,3.56
2022-12-07T04:52:12.018Z,3.61
2022-12-07T04:54:41.157Z,3.62
2022-12-07T04:57:08.964Z,3.63
2022-12-07T04:59:39.881Z,3.60
2022-12-07T05:02:11.655Z,3.64
2022-12-07T05:04:39.440Z,3.65
2022-12-07T05:07:07.174Z,3.64
2022-12-07T05:09:35.054Z,3.67
2022-12-07T05:12:04.207Z,3.66
2022-12-07T05:14:32.354Z,3.63
2022-12-07T05:17:00.031Z,3.61
2022-12-07T05:19:28.173Z,3.58
2022-12-07T05:21:55.849Z,3.58
2022-12-07T05:24:23.742Z,3.63
2022-12-07T05:26:51.444Z,3.61
2022-12-07T05:29:20.459Z,3.59
2022-12-07T05:31:48.504Z,3.57
2022-12-07T05:34:16.335Z,3.53
2022-12-07T05:36:44.067Z,3.49
2022-12-07T05:39:12.250Z,3.52
2022-12-07T05:41:57.513Z,3.46
2022-12-07T05:44:26.667Z,3.42
2022-12-07T05:46:54.322Z,3.44
2022-12-07T05:49:22.077Z,3.49
2022-12-07T05:51:49.984Z,3.41
2022-12-07T05:54:17.918Z,3.34
2022-12-07T05:56:45.736Z,3.33
2022-12-07T05:59:24.677Z,3.36
2022-12-07T06:01:54.830Z,3.35
2022-12-07T06:04:23.798Z,3.40
2022-12-07T06:06:51.481Z,3.44
2022-12-07T06:09:20.394Z,3.52
2022-12-07T06:12:05.953Z,3.53
2022-12-07T06:14:33.659Z,3.56
2022-12-07T06:17:03.205Z,3.58
2022-12-07T06:19:31.374Z,3.60
2022-12-07T06:21:59.182Z,3.60
2022-12-07T06:24:27.245Z,3.59
2022-12-07T06:26:55.141Z,3.61
2022-12-07T06:29:22.972Z,3.62
2022-12-07T06:31:50.804Z,3.65
2022-12-07T06:34:23.618Z,3.65
2022-12-07T06:36:52.897Z,3.68
2022-12-07T06:39:21.919Z,3.71
2022-12-07T06:41:49.753Z,3.76
2022-12-07T06:44:17.572Z,3.77
2022-12-07T06:46:45.437Z,3.79
2022-12-07T06:49:13.327Z,3.79
2022-12-07T06:51:42.970Z,3.86
2022-12-07T06:54:11.421Z,3.85
2022-12-07T06:56:39.212Z,3.89
2022-12-07T06:59:08.517Z,3.90
2022-12-07T07:01:37.469Z,3.88
2022-12-07T07:04:05.601Z,3.92
2022-12-07T07:06:33.733Z,3.89
2022-12-07T07:09:03.030Z,3.92
2022-12-07T07:11:30.776Z,3.92
2022-12-07T07:14:02.988Z,3.95
2022-12-07T07:16:31.961Z,3.96
2022-12-07T07:18:59.953Z,3.95
2022-12-07T07:21:27.689Z,3.99
2022-12-07T07:23:55.370Z,4.00
2022-12-07T07:26:24.632Z,4.09
2022-12-07T07:28:52.446Z,4.08
2022-12-07T07:31:20.143Z,4.05
2022-12-07T07:33:48.245Z,3.98
2022-12-07T07:36:16.516Z,3.98
2022-12-07T07:38:44.255Z,4.00
2022-12-07T07:41:12.121Z,4.01
2022-12-07T07:43:41.417Z,4.02
2022-12-07T07:46:09.298Z,4.05
2022-12-07T07:48:37.110Z,4.07
2022-12-07T07:51:07.852Z,4.08
2022-12-07T07:53:35.739Z,4.08
2022-12-07T07:56:04.256Z,4.08
2022-12-07T07:58:32.106Z,4.03
2022-12-07T08:01:07.998Z,4.06
2022-12-07T08:03:37.193Z,4.07
2022-12-07T08:06:05.779Z,4.06
2022-12-07T08:08:33.848Z,4.09
2022-12-07T08:11:02.492Z,4.11
2022-12-07T08:13:31.557Z,4.18
2022-12-07T08:16:00.264Z,4.25
2022-12-07T08:18:29.380Z,4.27
2022-12-07T08:21:02.352Z,4.29
2022-12-07T08:23:37.556Z,4.32
2022-12-07T08:26:09.786Z,4.33
2022-12-07T08:28:38.006Z,4.34
2022-12-07T08:31:08.076Z,4.42
2022-12-07T08:33:38.040Z,4.46
2022-12-07T08:36:09.473Z,4.41
2022-12-07T08:38:37.856Z,4.50
2022-12-07T08:41:05.908Z,4.59
2022-12-07T08:43:34.191Z,4.60
2022-12-07T08:46:08.611Z,4.63
2022-12-07T08:48:42.931Z,4.67
2022-12-07T08:51:10.828Z,4.70
2022-12-07T08:53:40.071Z,4.72
2022-12-07T08:56:09.639Z,4.78
2022-12-07T08:58:39.057Z,4.82
2022-12-07T09:01:07.225Z,4.86
2022-12-07T09:03:35.520Z,4.91
2022-12-07T09:06:05.554Z,4.96
2022-12-07T09:08:36.866Z,4.98
2022-12-07T09:11:04.702Z,5.02
2022-12-07T09:13:32.402Z,5.08
2022-12-07T09:16:00.157Z,5.13
2022-12-07T09:18:27.847Z,5.14
2022-12-07T09:20:55.557Z,5.18
2022-12-07T09:23:24.883Z,5.22
2022-12-07T09:25:52.566Z,5.25
2022-12-07T09:28:20.386Z,5.27
2022-12-07T09:31:21.721Z,5.28
2022-12-07T09:33:36.674Z,5.30
2022-12-07T09:36:06.456Z,5.32
2022-12-07T09:38:36.499Z,5.34
2022-12-07T09:41:07.425Z,5.41
2022-12-07T09:43:37.465Z,5.44
2022-12-07T09:46:06.077Z,5.46
2022-12-07T09:48:37.523Z,5.43
2022-12-07T09:51:18.020Z,5.32
2022-12-07T09:53:52.804Z,5.20
2022-12-07T09:56:21.885Z,5.08
2022-12-07T09:58:51.809Z,5.03
2022-12-07T10:01:21.878Z,5.03
2022-12-07T10:03:53.877Z,5.02
2022-12-07T10:06:21.786Z,4.98
2022-12-07T10:08:51.194Z,5.00
2022-12-07T10:11:19.076Z,5.12
2022-12-07T10:13:49.833Z,5.18
2022-12-07T10:16:40.011Z,5.20
2022-12-07T10:19:21.520Z,5.25
2022-12-07T10:22:06.256Z,5.36
2022-12-07T10:24:35.316Z,5.44
2022-12-07T10:27:03.116Z,5.46
2022-12-07T10:29:33.530Z,5.54
2022-12-07T10:32:03.375Z,5.75
2022-12-07T10:34:35.292Z,5.83
2022-12-07T10:37:19.467Z,5.77
2022-12-07T10:39:50.497Z,5.71
2022-12-07T10:42:20.644Z,5.74
2022-12-07T10:44:49.688Z,5.62
2022-12-07T10:47:36.654Z,5.73
2022-12-07T10:50:21.614Z,5.78
2022-12-07T10:53:08.575Z,5.95
2022-12-07T10:55:54.076Z,6.13
2022-12-07T10:58:38.558Z,6.06
2022-12-07T11:01:15.250Z,6.17
2022-12-07T11:04:09.551Z,6.14
2022-12-07T11:06:42.772Z,6.07
2022-12-07T11:13:10.117Z,6.07
2022-12-07T11:16:07.648Z,6.07
2022-12-07T11:18:47.076Z,6.15
2022-12-07T11:21:22.629Z,6.05
2022-12-07T11:23:58.106Z,5.92
2022-12-07T11:26:37.238Z,5.75
2022-12-07T11:29:23.000Z,5.65
2022-12-07T11:32:01.652Z,5.68
2022-12-07T11:34:41.816Z,5.78
2022-12-07T11:37:15.909Z,6.06
2022-12-07T11:39:48.420Z,6.47
2022-12-07T11:42:20.924Z,6.57
2022-12-07T11:44:55.351Z,6.54
2022-12-07T11:47:30.394Z,6.46
2022-12-07T11:50:07.569Z,6.31
2022-12-07T11:52:44.900Z,6.17
2022-12-07T11:55:23.183Z,6.19
2022-12-07T11:57:56.804Z,6.09
2022-12-07T12:00:25.971Z,6.02
2022-12-07T12:03:02.216Z,5.99
2022-12-07T12:05:31.068Z,5.97
2022-12-07T12:11:11.104Z,5.96
2022-12-07T12:17:30.720Z,6.01
2022-12-07T12:20:04.919Z,6.04
2022-12-07T12:22:39.183Z,6.07
2022-12-07T12:25:09.650Z,6.12
2022-12-07T12:27:41.069Z,6.18
2022-12-07T12:30:28.069Z,6.18
2022-12-07T12:33:05.615Z,6.18
2022-12-07T12:35:35.321Z,6.18
2022-12-07T12:38:29.493Z,6.18
2022-12-07T12:40:57.976Z,6.20
2022-12-07T12:43:55.950Z,6.22
2022-12-07T12:46:52.021Z,6.30
2022-12-07T12:49:45.827Z,6.26
2022-12-07T12:52:58.492Z,6.24
2022-12-07T12:55:49.747Z,6.23
2022-12-07T12:58:39.593Z,6.25
2022-12-07T13:01:40.731Z,6.29
2022-12-07T13:04:34.628Z,6.33
2022-12-07T13:07:03.721Z,6.38
2022-12-07T13:09:37.294Z,6.34
2022-12-07T13:12:13.827Z,6.29
2022-12-07T13:14:56.884Z,6.21
2022-12-07T13:17:59.328Z,6.14
2022-12-07T13:20:45.895Z,6.07
2022-12-07T13:23:18.633Z,6.02
2022-12-07T13:25:53.376Z,5.98
2022-12-07T13:28:23.466Z,5.93
2022-12-07T13:31:13.816Z,5.91
2022-12-07T13:33:44.749Z,5.90
2022-12-07T13:36:19.740Z,5.90
2022-12-07T13:38:53.956Z,5.89
2022-12-07T13:41:23.495Z,5.88
2022-12-07T13:43:54.730Z,5.87
2022-12-07T13:46:27.997Z,5.87
2022-12-07T13:48:56.533Z,5.88
2022-12-07T13:51:26.613Z,5.89
2022-12-07T13:53:57.919Z,5.83
2022-12-07T13:56:31.364Z,5.87
2022-12-07T13:58:59.085Z,5.85
2022-12-07T14:01:27.560Z,5.83
2022-12-07T14:03:55.294Z,5.84
2022-12-07T14:06:29.860Z,5.82
2022-12-07T14:09:20.232Z,5.78
2022-12-07T14:11:49.819Z,5.70
2022-12-07T14:14:21.181Z,5.62
2022-12-07T14:17:03.338Z,5.58
2022-12-07T14:19:48.564Z,5.64
2022-12-07T14:22:31.989Z,5.64
2022-12-07T14:25:19.471Z,5.58
2022-12-07T14:27:58.361Z,5.52
2022-12-07T14:30:28.897Z,5.57
2022-12-07T14:33:01.293Z,5.65
2022-12-07T14:35:29.090Z,5.68
2022-12-07T14:37:56.850Z,5.74
2022-12-07T14:40:28.655Z,5.76
2022-12-07T14:42:59.276Z,5.77
2022-12-07T14:45:26.936Z,5.72
2022-12-07T14:53:37.045Z,5.71
2022-12-07T14:56:07.402Z,5.71
2022-12-07T14:58:35.180Z,5.65
2022-12-07T15:01:03.200Z,5.58
2022-12-07T15:03:31.639Z,5.50
2022-12-07T15:05:59.823Z,5.47
2022-12-07T15:08:27.742Z,5.41
2022-12-07T15:10:55.478Z,5.36
2022-12-07T15:13:41.998Z,5.33
2022-12-07T15:16:12.870Z,5.28
2022-12-07T15:18:45.395Z,5.23
2022-12-07T15:21:20.892Z,5.20
2022-12-07T15:23:49.129Z,5.16
2022-12-07T15:26:16.915Z,5.10
2022-12-07T15:28:45.954Z,5.03
2022-12-07T15:31:39.104Z,5.03
2022-12-07T15:34:01.577Z,4.98
2022-12-07T15:36:32.421Z,4.89
2022-12-07T15:39:15.897Z,4.81
2022-12-07T15:41:43.749Z,4.76
2022-12-07T15:44:31.883Z,4.78
2022-12-07T15:46:59.546Z,4.85
2022-12-07T15:49:28.338Z,4.90
2022-12-07T15:51:56.137Z,4.91
2022-12-07T15:54:25.869Z,4.87
2022-12-07T15:56:53.617Z,4.84
2022-12-07T15:59:22.844Z,4.81
2022-12-07T16:01:50.997Z,4.77
2022-12-07T16:04:19.590Z,4.75
2022-12-07T16:06:47.413Z,4.71
2022-12-07T16:09:15.117Z,4.68
2022-12-07T16:11:42.778Z,4.67
2022-12-07T16:14:10.430Z,4.65
2022-12-07T16:16:41.073Z,4.63
2022-12-07T16:19:09.376Z,4.67
2022-12-07T16:21:37.516Z,4.66
2022-12-07T16:24:07.079Z,4.63
2022-12-07T16:26:35.205Z,4.63
2022-12-07T16:29:02.871Z,4.68
2022-12-07T16:31:31.689Z,4.70
2022-12-07T16:34:00.844Z,4.65
2022-12-07T16:39:16.496Z,4.57
2022-12-07T16:41:44.435Z,4.56
2022-12-07T16:44:14.385Z,4.56
2022-12-07T16:46:42.647Z,4.58
2022-12-07T16:49:14.669Z,4.56
2022-12-07T16:51:43.807Z,4.46
2022-12-07T16:54:12.545Z,4.47
2022-12-07T16:56:40.450Z,4.50
2022-12-07T16:59:08.140Z,4.52
2022-12-07T17:01:36.785Z,4.39
2022-12-07T17:04:05.386Z,4.31
2022-12-07T17:06:34.640Z,4.22
2022-12-07T17:09:02.248Z,4.16
2022-12-07T17:11:32.612Z,4.10
2022-12-07T17:14:17.847Z,3.99
2022-12-07T17:16:45.914Z,3.92
2022-12-07T17:19:15.946Z,3.88
2022-12-07T17:21:45.649Z,3.85
2022-12-07T17:24:15.493Z,3.80
2022-12-07T17:26:45.140Z,3.77
2022-12-07T17:29:14.904Z,3.76
2022-12-07T17:31:49.319Z,3.84
2022-12-07T17:34:18.832Z,3.88
2022-12-07T17:36:48.272Z,3.88
2022-12-07T17:39:18.642Z,3.88
2022-12-07T17:42:15.733Z,3.86
2022-12-07T17:44:43.417Z,3.72
2022-12-07T17:47:11.181Z,3.65
2022-12-07T17:49:38.890Z,3.67
2022-12-07T17:52:25.333Z,3.64
2022-12-07T17:54:52.986Z,3.56
2022-12-07T17:57:21.421Z,3.52
2022-12-07T17:59:50.079Z,3.38
2022-12-07T18:02:17.978Z,3.27
2022-12-07T18:04:47.449Z,3.16
2022-12-07T18:07:16.725Z,3.12
2022-12-07T18:09:44.556Z,3.07
2022-12-07T18:12:12.414Z,3.06
2022-12-07T18:14:40.138Z,3.04
2022-12-07T18:17:07.822Z,3.03
2022-12-07T18:19:37.149Z,3.05
2022-12-07T18:22:05.018Z,3.14
2022-12-07T18:24:37.149Z,3.29
2022-12-07T18:27:05.589Z,3.35
2022-12-07T18:29:33.429Z,3.49
2022-12-07T18:32:01.640Z,3.56
2022-12-07T18:34:30.387Z,3.59
2022-12-07T18:36:58.092Z,3.61
2022-12-07T18:39:31.616Z,3.66
2022-12-07T18:42:03.134Z,3.63
2022-12-07T18:44:30.800Z,3.66
2022-12-07T18:46:58.542Z,3.63
2022-12-07T18:49:26.242Z,3.62
2022-12-07T18:51:53.943Z,3.60
2022-12-07T18:54:21.580Z,3.58
2022-12-07T18:56:49.272Z,3.59
2022-12-07T18:59:35.902Z,3.62
2022-12-07T19:02:03.672Z,3.61
2022-12-07T19:04:31.783Z,3.62
2022-12-07T19:06:59.795Z,3.58
2022-12-07T19:09:27.560Z,3.55
2022-12-07T19:11:56.383Z,3.54
2022-12-07T19:14:28.741Z,3.56
2022-12-07T19:16:58.440Z,3.58
2022-12-07T19:19:31.061Z,3.60
2022-12-07T19:21:58.925Z,3.59
2022-12-07T19:24:26.740Z,3.58
2022-12-07T19:26:54.469Z,3.61
2022-12-07T19:29:22.354Z,3.57
2022-12-07T19:31:51.418Z,3.57
2022-12-07T19:34:19.172Z,3.60
2022-12-07T19:36:47.799Z,3.55
2022-12-07T19:39:17.293Z,3.51
2022-12-07T19:41:46.074Z,3.45
2022-12-07T19:44:16.088Z,3.47
2022-12-07T19:46:46.785Z,3.45
2022-12-07T19:49:16.342Z,3.43
2022-12-07T19:51:45.537Z,3.39
2022-12-07T19:54:15.606Z,3.28
2022-12-07T19:56:44.716Z,3.32
2022-12-07T19:59:13.439Z,3.42
2022-12-07T20:01:42.135Z,3.44
2022-12-07T20:04:12.016Z,3.41
2022-12-07T20:06:41.428Z,3.42
2022-12-07T20:09:09.395Z,3.44
2022-12-07T20:11:55.752Z,3.46
2022-12-07T20:14:24.042Z,3.50
2022-12-07T20:16:52.243Z,3.50
2022-12-07T20:19:20.166Z,3.49
2022-12-07T20:21:50.469Z,3.51
2022-12-07T20:24:20.226Z,3.53
2022-12-07T20:26:50.197Z,3.51
2022-12-07T20:29:20.145Z,3.49
2022-12-07T20:31:49.921Z,3.53
2022-12-07T20:34:17.908Z,3.57
2022-12-07T20:36:46.204Z,3.55
2022-12-07T20:39:15.951Z,3.57
2022-12-07T20:42:01.102Z,3.59
2022-12-07T20:44:28.871Z,3.58
2022-12-07T20:46:56.543Z,3.56
2022-12-07T20:49:24.300Z,3.56
2022-12-07T20:51:52.084Z,3.57
2022-12-07T20:54:21.167Z,3.58
2022-12-07T20:56:48.793Z,3.58
2022-12-07T20:59:18.982Z,3.63
2022-12-07T21:01:46.975Z,3.63
2022-12-07T21:04:15.679Z,3.63
2022-12-07T21:06:43.434Z,3.72
2022-12-07T21:09:12.271Z,3.72
2022-12-07T21:11:41.387Z,3.68
2022-12-07T21:14:09.490Z,3.66
2022-12-07T21:16:37.182Z,3.65
2022-12-07T21:19:05.927Z,3.65
2022-12-07T21:21:34.978Z,3.72
2022-12-07T21:24:04.978Z,3.72
2022-12-07T21:26:34.514Z,3.71
2022-12-07T21:29:04.471Z,3.69
2022-12-07T21:31:32.482Z,3.73
2022-12-07T21:34:02.336Z,3.70
2022-12-07T21:36:30.043Z,3.69
2022-12-07T21:38:58.375Z,3.64
2022-12-07T21:41:27.726Z,3.70
2022-12-07T21:43:55.898Z,3.72
2022-12-07T21:46:33.369Z,3.68
2022-12-07T21:49:03.811Z,3.64
2022-12-07T21:51:31.717Z,3.68
2022-12-07T21:54:00.530Z,3.69
2022-12-07T21:56:29.956Z,3.66
2022-12-07T21:59:01.686Z,3.67
2022-12-07T22:01:37.668Z,3.70
2022-12-07T22:04:06.427Z,3.64
2022-12-07T22:06:35.064Z,3.66
2022-12-07T22:09:03.898Z,3.66
2022-12-07T22:11:31.545Z,3.67
2022-12-07T22:14:16.970Z,3.69
2022-12-07T22:16:46.224Z,3.69
2022-12-07T22:19:14.084Z,3.71
2022-12-07T22:21:41.835Z,3.73
2022-12-07T22:24:10.864Z,3.99
2022-12-07T22:26:38.498Z,3.91
2022-12-07T22:29:06.112Z,4.01
2022-12-07T22:31:33.957Z,4.11
2022-12-07T22:34:03.043Z,4.09
2022-12-07T22:36:30.637Z,3.91
2022-12-07T22:38:58.329Z,4.04
2022-12-07T22:41:27.750Z,3.94
2022-12-07T22:43:55.826Z,3.88
2022-12-07T22:46:24.496Z,3.82
2022-12-07T22:48:52.916Z,3.83
2022-12-07T22:51:24.123Z,3.85
2022-12-07T22:53:52.965Z,3.80
2022-12-07T22:56:21.415Z,3.76
2022-12-07T22:58:49.199Z,3.98
2022-12-07T23:01:19.495Z,3.90
2022-12-07T23:03:47.498Z,3.80
2022-12-07T23:06:17.749Z,3.78
2022-12-07T23:08:46.858Z,3.69
2022-12-07T23:11:38.491Z,3.72
2022-12-07T23:14:10.009Z,3.71
2022-12-07T23:16:38.017Z,3.68
2022-12-07T23:19:05.786Z,3.62
2022-12-07T23:21:34.207Z,3.64
2022-12-07T23:24:03.348Z,3.65
2022-12-07T23:26:31.179Z,3.65
2022-12-07T23:28:59.344Z,3.66
2022-12-07T23:31:27.035Z,3.68
2022-12-07T23:33:55.113Z,3.70
2022-12-07T23:36:25.188Z,3.74
2022-12-07T23:38:54.485Z,3.70
2022-12-07T23:41:25.286Z,3.66
2022-12-07T23:43:54.084Z,3.72
2022-12-07T23:46:23.673Z,3.67
2022-12-07T23:48:52.661Z,3.72
2022-12-07T23:51:20.977Z,3.83
2022-12-07T23:53:50.846Z,3.85
2022-12-07T23:56:20.717Z,3.80
2022-12-07T23:58:50.896Z,3.66
